sensor_id;sensor_type;location;lat;lon;timestamp;temperature;humidity
55331;DHT22;58851;42.984;20.336;2023-09-19T00:00:30;461.30;128.00
55331;DHT22;58851;42.984;20.336;2023-09-19T00:02:58;461.30;128.00
55331;DHT22;58851;42.984;20.336;2023-09-19T00:05:27;461.30;128.00
55331;DHT22;58851;42.984;20.336;2023-09-19T00:07:55;461.20;128.00
55331;DHT22;58851;42.984;20.336;2023-09-19T00:10:24;461.30;128.00
55331;DHT22;58851;42.984;20.336;2023-09-19T00:12:55;461.30;128.00
55331;DHT22;58851;42.984;20.336;2023-09-19T00:15:25;461.20;128.00
55331;DHT22;58851;42.984;20.336;2023-09-19T00:17:55;461.30;128.00
55331;DHT22;58851;42.984;20.336;2023-09-19T00:20:21;461.20;128.00
55331;DHT22;58851;42.984;20.336;2023-09-19T00:22:51;461.20;128.00
55331;DHT22;58851;42.984;20.336;2023-09-19T00:25:19;461.10;128.00
55331;DHT22;58851;42.984;20.336;2023-09-19T00:27:46;461.10;128.00
55331;DHT22;58851;42.984;20.336;2023-09-19T00:30:17;461.00;128.00
55331;DHT22;58851;42.984;20.336;2023-09-19T00:32:50;460.90;128.00
55331;DHT22;58851;42.984;20.336;2023-09-19T00:35:18;460.80;128.00
55331;DHT22;58851;42.984;20.336;2023-09-19T00:37:50;460.80;128.00
55331;DHT22;58851;42.984;20.336;2023-09-19T00:40:16;460.80;128.00
55331;DHT22;58851;42.984;20.336;2023-09-19T00:42:45;460.90;128.00
55331;DHT22;58851;42.984;20.336;2023-09-19T00:45:13;460.90;128.00
55331;DHT22;58851;42.984;20.336;2023-09-19T00:47:40;461.00;128.00
55331;DHT22;58851;42.984;20.336;2023-09-19T00:50:08;461.00;128.00
55331;DHT22;58851;42.984;20.336;2023-09-19T00:52:36;461.00;128.00
55331;DHT22;58851;42.984;20.336;2023-09-19T00:55:08;461.00;128.00
55331;DHT22;58851;42.984;20.336;2023-09-19T00:57:36;461.00;128.00
55331;DHT22;58851;42.984;20.336;2023-09-19T01:00:05;461.00;128.00
55331;DHT22;58851;42.984;20.336;2023-09-19T01:02:32;461.00;128.00
55331;DHT22;58851;42.984;20.336;2023-09-19T01:04:59;461.00;128.00
55331;DHT22;58851;42.984;20.336;2023-09-19T01:07:27;461.00;128.00
55331;DHT22;58851;42.984;20.336;2023-09-19T01:09:56;461.00;128.00
55331;DHT22;58851;42.984;20.336;2023-09-19T01:12:38;460.90;128.00
55331;DHT22;58851;42.984;20.336;2023-09-19T01:16:19;460.90;128.00
55331;DHT22;58851;42.984;20.336;2023-09-19T01:18:46;460.80;128.00
55331;DHT22;58851;42.984;20.336;2023-09-19T01:31:59;460.80;128.00
55331;DHT22;58851;42.984;20.336;2023-09-19T01:34:46;460.80;128.00
55331;DHT22;58851;42.984;20.336;2023-09-19T01:37:13;460.80;128.00
55331;DHT22;58851;42.984;20.336;2023-09-19T01:39:47;460.80;128.00
55331;DHT22;58851;42.984;20.336;2023-09-19T01:42:35;460.80;128.00
55331;DHT22;58851;42.984;20.336;2023-09-19T01:45:33;460.80;128.00
55331;DHT22;58851;42.984;20.336;2023-09-19T01:48:46;460.80;128.00
55331;DHT22;58851;42.984;20.336;2023-09-19T01:51:19;460.80;128.00
55331;DHT22;58851;42.984;20.336;2023-09-19T01:54:09;460.80;128.00
55331;DHT22;58851;42.984;20.336;2023-09-19T01:56:42;436.10;128.00
55331;DHT22;58851;42.984;20.336;2023-09-19T01:59:15;436.10;128.00
55331;DHT22;58851;42.984;20.336;2023-09-19T02:01:44;436.10;128.00
55331;DHT22;58851;42.984;20.336;2023-09-19T02:04:11;436.10;128.00
55331;DHT22;58851;42.984;20.336;2023-09-19T02:06:40;436.10;128.00
55331;DHT22;58851;42.984;20.336;2023-09-19T02:09:06;436.10;128.00
55331;DHT22;58851;42.984;20.336;2023-09-19T02:11:32;436.00;128.00
55331;DHT22;58851;42.984;20.336;2023-09-19T02:13:58;436.10;128.00
55331;DHT22;58851;42.984;20.336;2023-09-19T02:16:25;460.80;128.00
55331;DHT22;58851;42.984;20.336;2023-09-19T02:18:51;460.80;128.00
55331;DHT22;58851;42.984;20.336;2023-09-19T02:21:17;460.80;128.00
55331;DHT22;58851;42.984;20.336;2023-09-19T02:23:44;460.80;128.00
55331;DHT22;58851;42.984;20.336;2023-09-19T02:26:13;460.80;128.00
55331;DHT22;58851;42.984;20.336;2023-09-19T02:28:39;460.80;128.00
55331;DHT22;58851;42.984;20.336;2023-09-19T02:31:05;460.80;128.00
55331;DHT22;58851;42.984;20.336;2023-09-19T02:33:31;460.80;128.00
55331;DHT22;58851;42.984;20.336;2023-09-19T02:35:58;460.80;128.00
55331;DHT22;58851;42.984;20.336;2023-09-19T02:38:27;460.80;128.00
55331;DHT22;58851;42.984;20.336;2023-09-19T02:40:54;436.10;128.00
55331;DHT22;58851;42.984;20.336;2023-09-19T02:43:21;436.00;128.00
55331;DHT22;58851;42.984;20.336;2023-09-19T02:45:47;435.90;128.00
55331;DHT22;58851;42.984;20.336;2023-09-19T02:48:16;436.00;128.00
55331;DHT22;58851;42.984;20.336;2023-09-19T02:50:42;436.00;128.00
55331;DHT22;58851;42.984;20.336;2023-09-19T02:53:08;436.10;128.00
55331;DHT22;58851;42.984;20.336;2023-09-19T02:55:38;436.00;128.00
55331;DHT22;58851;42.984;20.336;2023-09-19T02:58:06;436.10;128.00
55331;DHT22;58851;42.984;20.336;2023-09-19T03:00:33;435.90;128.00
55331;DHT22;58851;42.984;20.336;2023-09-19T03:03:02;435.90;128.00
55331;DHT22;58851;42.984;20.336;2023-09-19T03:05:28;435.90;128.00
55331;DHT22;58851;42.984;20.336;2023-09-19T03:07:56;435.90;128.00
55331;DHT22;58851;42.984;20.336;2023-09-19T03:10:23;435.80;128.00
55331;DHT22;58851;42.984;20.336;2023-09-19T03:12:50;435.90;128.00
55331;DHT22;58851;42.984;20.336;2023-09-19T03:15:16;435.90;128.00
55331;DHT22;58851;42.984;20.336;2023-09-19T03:17:45;436.00;128.00
55331;DHT22;58851;42.984;20.336;2023-09-19T03:20:11;435.90;128.00
55331;DHT22;58851;42.984;20.336;2023-09-19T03:22:39;435.90;128.00
55331;DHT22;58851;42.984;20.336;2023-09-19T03:25:06;435.90;128.00
55331;DHT22;58851;42.984;20.336;2023-09-19T03:27:36;435.90;128.00
55331;DHT22;58851;42.984;20.336;2023-09-19T03:30:03;435.90;128.00
55331;DHT22;58851;42.984;20.336;2023-09-19T03:32:36;435.80;128.00
55331;DHT22;58851;42.984;20.336;2023-09-19T03:35:02;435.80;128.00
55331;DHT22;58851;42.984;20.336;2023-09-19T03:37:31;435.80;128.00
55331;DHT22;58851;42.984;20.336;2023-09-19T03:39:57;435.80;128.00
55331;DHT22;58851;42.984;20.336;2023-09-19T03:42:23;435.70;128.00
55331;DHT22;58851;42.984;20.336;2023-09-19T03:44:52;435.70;128.00
55331;DHT22;58851;42.984;20.336;2023-09-19T03:47:18;435.80;128.00
55331;DHT22;58851;42.984;20.336;2023-09-19T03:49:47;435.80;128.00
55331;DHT22;58851;42.984;20.336;2023-09-19T03:52:13;435.80;128.00
55331;DHT22;58851;42.984;20.336;2023-09-19T03:54:40;435.90;128.00
55331;DHT22;58851;42.984;20.336;2023-09-19T03:57:07;435.80;128.00
55331;DHT22;58851;42.984;20.336;2023-09-19T03:59:33;435.80;128.00
55331;DHT22;58851;42.984;20.336;2023-09-19T04:01:58;435.80;128.00
55331;DHT22;58851;42.984;20.336;2023-09-19T04:04:25;435.80;128.00
55331;DHT22;58851;42.984;20.336;2023-09-19T04:06:53;435.90;128.00
55331;DHT22;58851;42.984;20.336;2023-09-19T04:09:19;435.90;128.00
55331;DHT22;58851;42.984;20.336;2023-09-19T04:11:45;435.80;128.00
55331;DHT22;58851;42.984;20.336;2023-09-19T04:14:11;435.90;128.00
55331;DHT22;58851;42.984;20.336;2023-09-19T04:16:36;435.70;128.00
55331;DHT22;58851;42.984;20.336;2023-09-19T04:19:04;435.70;128.00
55331;DHT22;58851;42.984;20.336;2023-09-19T04:21:31;435.80;128.00
55331;DHT22;58851;42.984;20.336;2023-09-19T04:23:57;435.70;128.00
55331;DHT22;58851;42.984;20.336;2023-09-19T04:26:23;435.70;128.00
55331;DHT22;58851;42.984;20.336;2023-09-19T04:28:51;435.70;128.00
55331;DHT22;58851;42.984;20.336;2023-09-19T04:31:16;435.70;128.00
55331;DHT22;58851;42.984;20.336;2023-09-19T04:33:44;435.70;128.00
55331;DHT22;58851;42.984;20.336;2023-09-19T04:36:09;435.60;128.00
55331;DHT22;58851;42.984;20.336;2023-09-19T04:38:35;435.60;128.00
55331;DHT22;58851;42.984;20.336;2023-09-19T04:41:01;435.60;128.00
55331;DHT22;58851;42.984;20.336;2023-09-19T04:43:27;435.60;128.00
55331;DHT22;58851;42.984;20.336;2023-09-19T04:45:54;435.70;128.00
55331;DHT22;58851;42.984;20.336;2023-09-19T04:48:22;435.70;128.00
55331;DHT22;58851;42.984;20.336;2023-09-19T04:50:50;435.70;128.00
55331;DHT22;58851;42.984;20.336;2023-09-19T04:53:20;435.80;128.00
55331;DHT22;58851;42.984;20.336;2023-09-19T04:55:55;435.80;128.00
55331;DHT22;58851;42.984;20.336;2023-09-19T04:58:22;435.90;128.00
55331;DHT22;58851;42.984;20.336;2023-09-19T05:00:48;435.80;128.00
55331;DHT22;58851;42.984;20.336;2023-09-19T05:03:16;435.90;128.00
55331;DHT22;58851;42.984;20.336;2023-09-19T05:05:42;435.80;128.00
55331;DHT22;58851;42.984;20.336;2023-09-19T05:08:08;435.90;128.00
55331;DHT22;58851;42.984;20.336;2023-09-19T05:10:35;435.90;128.00
55331;DHT22;58851;42.984;20.336;2023-09-19T05:13:04;435.90;128.00
55331;DHT22;58851;42.984;20.336;2023-09-19T05:15:30;436.00;128.00
55331;DHT22;58851;42.984;20.336;2023-09-19T05:17:56;436.10;128.00
55331;DHT22;58851;42.984;20.336;2023-09-19T05:20:22;436.00;128.00
55331;DHT22;58851;42.984;20.336;2023-09-19T05:23:06;436.00;128.00
55331;DHT22;58851;42.984;20.336;2023-09-19T05:25:37;436.10;128.00
55331;DHT22;58851;42.984;20.336;2023-09-19T05:28:09;436.00;128.00
55331;DHT22;58851;42.984;20.336;2023-09-19T05:30:36;436.00;128.00
55331;DHT22;58851;42.984;20.336;2023-09-19T05:33:04;436.10;128.00
55331;DHT22;58851;42.984;20.336;2023-09-19T05:35:30;436.10;128.00
55331;DHT22;58851;42.984;20.336;2023-09-19T05:37:57;460.80;128.00
55331;DHT22;58851;42.984;20.336;2023-09-19T05:40:24;460.80;128.00
55331;DHT22;58851;42.984;20.336;2023-09-19T05:42:50;460.80;128.00
55331;DHT22;58851;42.984;20.336;2023-09-19T05:45:16;460.80;128.00
55331;DHT22;58851;42.984;20.336;2023-09-19T05:47:51;460.80;128.00
55331;DHT22;58851;42.984;20.336;2023-09-19T05:50:21;460.80;128.00
55331;DHT22;58851;42.984;20.336;2023-09-19T05:52:54;460.80;128.00
55331;DHT22;58851;42.984;20.336;2023-09-19T05:55:21;460.80;128.00
55331;DHT22;58851;42.984;20.336;2023-09-19T05:57:51;460.80;128.00
55331;DHT22;58851;42.984;20.336;2023-09-19T06:00:21;460.90;128.00
55331;DHT22;58851;42.984;20.336;2023-09-19T06:02:54;460.80;128.00
55331;DHT22;58851;42.984;20.336;2023-09-19T06:05:21;460.90;128.00
55331;DHT22;58851;42.984;20.336;2023-09-19T06:07:47;461.00;128.00
55331;DHT22;58851;42.984;20.336;2023-09-19T06:10:13;461.00;128.00
55331;DHT22;58851;42.984;20.336;2023-09-19T06:12:41;461.00;128.00
55331;DHT22;58851;42.984;20.336;2023-09-19T06:15:09;461.10;128.00
55331;DHT22;58851;42.984;20.336;2023-09-19T06:17:49;461.20;128.00
55331;DHT22;58851;42.984;20.336;2023-09-19T06:20:16;461.10;128.00
55331;DHT22;58851;42.984;20.336;2023-09-19T06:22:43;461.30;128.00
55331;DHT22;58851;42.984;20.336;2023-09-19T06:25:14;461.30;128.00
55331;DHT22;58851;42.984;20.336;2023-09-19T06:27:50;461.40;128.00
55331;DHT22;58851;42.984;20.336;2023-09-19T06:30:21;461.50;128.00
55331;DHT22;58851;42.984;20.336;2023-09-19T06:32:47;461.50;128.00
55331;DHT22;58851;42.984;20.336;2023-09-19T06:35:15;461.60;128.00
55331;DHT22;58851;42.984;20.336;2023-09-19T06:37:42;461.60;128.00
55331;DHT22;58851;42.984;20.336;2023-09-19T06:40:10;461.70;128.00
55331;DHT22;58851;42.984;20.336;2023-09-19T06:42:44;486.40;128.00
55331;DHT22;58851;42.984;20.336;2023-09-19T06:45:14;486.50;128.00
55331;DHT22;58851;42.984;20.336;2023-09-19T06:47:48;486.60;128.00
55331;DHT22;58851;42.984;20.336;2023-09-19T06:50:20;486.70;128.00
55331;DHT22;58851;42.984;20.336;2023-09-19T06:52:50;486.60;128.00
55331;DHT22;58851;42.984;20.336;2023-09-19T06:55:18;486.60;128.00
55331;DHT22;58851;42.984;20.336;2023-09-19T06:57:48;486.80;128.00
55331;DHT22;58851;42.984;20.336;2023-09-19T07:00:15;486.80;128.00
55331;DHT22;58851;42.984;20.336;2023-09-19T07:03:04;486.80;128.00
55331;DHT22;58851;42.984;20.336;2023-09-19T07:05:34;486.90;128.00
55331;DHT22;58851;42.984;20.336;2023-09-19T07:08:03;486.80;128.00
55331;DHT22;58851;42.984;20.336;2023-09-19T07:10:29;486.80;128.00
55331;DHT22;58851;42.984;20.336;2023-09-19T07:15:23;486.90;128.00
55331;DHT22;58851;42.984;20.336;2023-09-19T07:17:53;486.90;128.00
55331;DHT22;58851;42.984;20.336;2023-09-19T07:20:20;486.90;128.00
55331;DHT22;58851;42.984;20.336;2023-09-19T07:22:46;486.80;128.00
55331;DHT22;58851;42.984;20.336;2023-09-19T07:25:13;487.00;128.00
55331;DHT22;58851;42.984;20.336;2023-09-19T07:50:39;487.20;128.00
55331;DHT22;58851;42.984;20.336;2023-09-19T07:53:06;512.60;128.00
55331;DHT22;58851;42.984;20.336;2023-09-19T07:55:31;512.50;128.00
55331;DHT22;58851;42.984;20.336;2023-09-19T07:57:59;512.70;128.00
55331;DHT22;58851;42.984;20.336;2023-09-19T08:00:25;537.60;128.00
55331;DHT22;58851;42.984;20.336;2023-09-19T08:02:51;537.80;128.00
55331;DHT22;58851;42.984;20.336;2023-09-19T08:05:19;537.60;128.00
55331;DHT22;58851;42.984;20.336;2023-09-19T08:07:46;537.70;128.00
55331;DHT22;58851;42.984;20.336;2023-09-19T08:10:15;537.70;128.00
55331;DHT22;58851;42.984;20.336;2023-09-19T08:12:46;537.80;128.00
55331;DHT22;58851;42.984;20.336;2023-09-19T08:15:17;537.70;128.00
55331;DHT22;58851;42.984;20.336;2023-09-19T08:17:43;537.60;128.00
55331;DHT22;58851;42.984;20.336;2023-09-19T08:20:10;537.70;128.00
55331;DHT22;58851;42.984;20.336;2023-09-19T08:22:43;537.90;128.00
55331;DHT22;58851;42.984;20.336;2023-09-19T08:25:11;538.30;128.00
55331;DHT22;58851;42.984;20.336;2023-09-19T08:27:37;538.20;128.00
55331;DHT22;58851;42.984;20.336;2023-09-19T08:30:03;538.40;128.00
55331;DHT22;58851;42.984;20.336;2023-09-19T08:32:29;563.20;128.00
55331;DHT22;58851;42.984;20.336;2023-09-19T08:34:55;563.50;128.00
55331;DHT22;58851;42.984;20.336;2023-09-19T08:37:21;563.70;128.00
55331;DHT22;58851;42.984;20.336;2023-09-19T08:39:46;563.80;128.00
55331;DHT22;58851;42.984;20.336;2023-09-19T08:42:12;563.90;128.00
55331;DHT22;58851;42.984;20.336;2023-09-19T08:44:39;564.00;128.00
55331;DHT22;58851;42.984;20.336;2023-09-19T08:47:15;588.90;128.00
55331;DHT22;58851;42.984;20.336;2023-09-19T08:50:01;589.10;128.00
55331;DHT22;58851;42.984;20.336;2023-09-19T08:52:37;589.20;179.20
55331;DHT22;58851;42.984;20.336;2023-09-19T08:55:06;589.30;281.60
55331;DHT22;58851;42.984;20.336;2023-09-19T08:57:36;589.40;128.00
55331;DHT22;58851;42.984;20.336;2023-09-19T09:00:07;589.60;179.20
55331;DHT22;58851;42.984;20.336;2023-09-19T09:02:38;589.70;128.00
55331;DHT22;58851;42.984;20.336;2023-09-19T09:05:09;614.40;128.00
55331;DHT22;58851;42.984;20.336;2023-09-19T09:07:37;614.60;128.00
55331;DHT22;58851;42.984;20.336;2023-09-19T09:10:04;614.70;128.00
55331;DHT22;58851;42.984;20.336;2023-09-19T09:12:31;614.90;128.00
55331;DHT22;58851;42.984;20.336;2023-09-19T09:14:56;615.00;128.00
55331;DHT22;58851;42.984;20.336;2023-09-19T09:17:26;615.20;128.00
55331;DHT22;58851;42.984;20.336;2023-09-19T09:19:53;640.00;128.00
55331;DHT22;58851;42.984;20.336;2023-09-19T09:22:19;640.10;128.00
55331;DHT22;58851;42.984;20.336;2023-09-19T09:24:59;640.10;128.00
55331;DHT22;58851;42.984;20.336;2023-09-19T09:27:27;640.30;128.00
55331;DHT22;58851;42.984;20.336;2023-09-19T09:29:53;640.40;204.80
55331;DHT22;58851;42.984;20.336;2023-09-19T09:32:27;640.30;230.40
55331;DHT22;58851;42.984;20.336;2023-09-19T09:34:59;640.40;384.00
55331;DHT22;58851;42.984;20.336;2023-09-19T09:37:25;640.60;512.00
55331;DHT22;58851;42.984;20.336;2023-09-19T09:39:54;640.70;128.00
55331;DHT22;58851;42.984;20.336;2023-09-19T09:42:35;665.60;153.60
55331;DHT22;58851;42.984;20.336;2023-09-19T09:45:20;665.80;153.60
55331;DHT22;58851;42.984;20.336;2023-09-19T09:47:59;665.80;153.60
55331;DHT22;58851;42.984;20.336;2023-09-19T09:50:31;640.90;128.00
55331;DHT22;58851;42.984;20.336;2023-09-19T09:53:27;665.70;153.60
55331;DHT22;58851;42.984;20.336;2023-09-19T09:56:06;666.10;153.60
55331;DHT22;58851;42.984;20.336;2023-09-19T10:01:01;666.40;153.60
55331;DHT22;58851;42.984;20.336;2023-09-19T10:03:37;691.30;153.60
55331;DHT22;58851;42.984;20.336;2023-09-19T10:06:14;691.50;153.60
55331;DHT22;58851;42.984;20.336;2023-09-19T10:11:45;716.80;179.20
55331;DHT22;58851;42.984;20.336;2023-09-19T10:14:17;717.00;179.20
55331;DHT22;58851;42.984;20.336;2023-09-19T10:16:49;717.20;179.20
55331;DHT22;58851;42.984;20.336;2023-09-19T10:19:23;717.40;179.20
55331;DHT22;58851;42.984;20.336;2023-09-19T10:32:25;717.50;332.80
55331;DHT22;58851;42.984;20.336;2023-09-19T10:34:54;742.80;204.80
55331;DHT22;58851;42.984;20.336;2023-09-19T10:37:22;743.00;204.80
55331;DHT22;58851;42.984;20.336;2023-09-19T10:39:52;742.80;204.80
55331;DHT22;58851;42.984;20.336;2023-09-19T10:42:20;742.70;204.80
55331;DHT22;58851;42.984;20.336;2023-09-19T10:44:51;742.80;819.20
55331;DHT22;58851;42.984;20.336;2023-09-19T10:47:20;742.90;793.60
55331;DHT22;58851;42.984;20.336;2023-09-19T10:49:47;742.80;204.80
55331;DHT22;58851;42.984;20.336;2023-09-19T10:52:15;742.90;793.60
55331;DHT22;58851;42.984;20.336;2023-09-19T10:54:50;742.90;204.80
55331;DHT22;58851;42.984;20.336;2023-09-19T10:57:24;743.10;204.80
55331;DHT22;58851;42.984;20.336;2023-09-19T11:00:05;743.20;204.80
55331;DHT22;58851;42.984;20.336;2023-09-19T11:06:15;768.20;768.00
55331;DHT22;58851;42.984;20.336;2023-09-19T11:09:04;768.50;204.80
55331;DHT22;58851;42.984;20.336;2023-09-19T11:30:44;794.00;230.40
55331;DHT22;58851;42.984;20.336;2023-09-19T11:33:19;793.80;230.40
55331;DHT22;58851;42.984;20.336;2023-09-19T11:36:10;793.80;230.40
55331;DHT22;58851;42.984;20.336;2023-09-19T11:46:30;768.60;204.80
55331;DHT22;58851;42.984;20.336;2023-09-19T11:49:06;768.40;204.80
55331;DHT22;58851;42.984;20.336;2023-09-19T11:51:51;768.40;204.80
55331;DHT22;58851;42.984;20.336;2023-09-19T11:54:17;768.50;204.80
55331;DHT22;58851;42.984;20.336;2023-09-19T11:56:45;768.80;204.80
55331;DHT22;58851;42.984;20.336;2023-09-19T11:59:23;768.70;204.80
55331;DHT22;58851;42.984;20.336;2023-09-19T12:01:57;768.80;204.80
55331;DHT22;58851;42.984;20.336;2023-09-19T12:04:41;768.80;204.80
55331;DHT22;58851;42.984;20.336;2023-09-19T12:07:13;794.00;230.40
55331;DHT22;58851;42.984;20.336;2023-09-19T12:09:43;794.40;230.40
55331;DHT22;58851;42.984;20.336;2023-09-19T12:12:25;819.40;230.40
55331;DHT22;58851;42.984;20.336;2023-09-19T12:14:56;819.40;230.40
55331;DHT22;58851;42.984;20.336;2023-09-19T12:17:37;819.50;230.40
55331;DHT22;58851;42.984;20.336;2023-09-19T12:20:05;819.70;230.40
55331;DHT22;58851;42.984;20.336;2023-09-19T12:22:44;819.30;230.40
55331;DHT22;58851;42.984;20.336;2023-09-19T12:25:11;819.30;230.40
55331;DHT22;58851;42.984;20.336;2023-09-19T12:27:43;819.30;230.40
55331;DHT22;58851;42.984;20.336;2023-09-19T12:30:10;819.30;230.40
55331;DHT22;58851;42.984;20.336;2023-09-19T12:32:40;819.60;230.40
55331;DHT22;58851;42.984;20.336;2023-09-19T12:35:10;819.70;230.40
55331;DHT22;58851;42.984;20.336;2023-09-19T12:37:37;819.60;230.40
55331;DHT22;58851;42.984;20.336;2023-09-19T12:40:07;819.80;230.40
55331;DHT22;58851;42.984;20.336;2023-09-19T12:42:54;820.00;230.40
55331;DHT22;58851;42.984;20.336;2023-09-19T12:45:30;820.00;230.40
55331;DHT22;58851;42.984;20.336;2023-09-19T12:51:03;819.90;230.40
55331;DHT22;58851;42.984;20.336;2023-09-19T12:53:34;819.60;230.40
55331;DHT22;58851;42.984;20.336;2023-09-19T12:56:05;819.60;230.40
55331;DHT22;58851;42.984;20.336;2023-09-19T12:58:34;819.50;230.40
55331;DHT22;58851;42.984;20.336;2023-09-19T13:01:00;819.40;230.40
55331;DHT22;58851;42.984;20.336;2023-09-19T13:03:29;819.40;230.40
55331;DHT22;58851;42.984;20.336;2023-09-19T13:06:03;819.20;230.40
55331;DHT22;58851;42.984;20.336;2023-09-19T13:08:37;819.50;230.40
55331;DHT22;58851;42.984;20.336;2023-09-19T13:11:17;819.30;230.40
55331;DHT22;58851;42.984;20.336;2023-09-19T13:17:02;794.10;230.40
55331;DHT22;58851;42.984;20.336;2023-09-19T13:19:58;768.90;204.80
55331;DHT22;58851;42.984;20.336;2023-09-19T13:22:40;768.70;204.80
55331;DHT22;58851;42.984;20.336;2023-09-19T13:25:21;768.50;204.80
55331;DHT22;58851;42.984;20.336;2023-09-19T13:27:54;768.10;204.80
55331;DHT22;58851;42.984;20.336;2023-09-19T13:30:22;743.00;204.80
55331;DHT22;58851;42.984;20.336;2023-09-19T13:32:48;743.00;204.80
55331;DHT22;58851;42.984;20.336;2023-09-19T13:35:15;742.90;204.80
55331;DHT22;58851;42.984;20.336;2023-09-19T13:37:41;742.70;204.80
55331;DHT22;58851;42.984;20.336;2023-09-19T13:40:13;768.10;204.80
55331;DHT22;58851;42.984;20.336;2023-09-19T13:42:39;768.70;204.80
55331;DHT22;58851;42.984;20.336;2023-09-19T13:45:06;768.50;204.80
55331;DHT22;58851;42.984;20.336;2023-09-19T13:47:36;768.20;204.80
55331;DHT22;58851;42.984;20.336;2023-09-19T13:50:04;793.60;230.40
55331;DHT22;58851;42.984;20.336;2023-09-19T13:52:32;794.30;230.40
55331;DHT22;58851;42.984;20.336;2023-09-19T13:54:58;794.10;230.40
55331;DHT22;58851;42.984;20.336;2023-09-19T13:57:25;819.70;230.40
55331;DHT22;58851;42.984;20.336;2023-09-19T13:59:52;844.80;256.00
55331;DHT22;58851;42.984;20.336;2023-09-19T14:02:19;819.90;230.40
55331;DHT22;58851;42.984;20.336;2023-09-19T14:04:48;819.20;230.40
55331;DHT22;58851;42.984;20.336;2023-09-19T14:07:14;794.00;230.40
55331;DHT22;58851;42.984;20.336;2023-09-19T14:09:41;794.10;230.40
55331;DHT22;58851;42.984;20.336;2023-09-19T14:12:06;768.90;204.80
55331;DHT22;58851;42.984;20.336;2023-09-19T14:14:32;768.40;204.80
55331;DHT22;58851;42.984;20.336;2023-09-19T14:16:58;742.90;204.80
55331;DHT22;58851;42.984;20.336;2023-09-19T14:19:27;742.50;204.80
55331;DHT22;58851;42.984;20.336;2023-09-19T14:21:53;716.80;179.20
55331;DHT22;58851;42.984;20.336;2023-09-19T14:24:21;692.10;153.60
55331;DHT22;58851;42.984;20.336;2023-09-19T14:26:48;691.90;153.60
55331;DHT22;58851;42.984;20.336;2023-09-19T14:29:15;691.50;153.60
55331;DHT22;58851;42.984;20.336;2023-09-19T14:31:41;691.50;153.60
55331;DHT22;58851;42.984;20.336;2023-09-19T14:34:08;691.40;153.60
55331;DHT22;58851;42.984;20.336;2023-09-19T14:36:37;691.40;153.60
55331;DHT22;58851;42.984;20.336;2023-09-19T14:39:06;691.40;153.60
55331;DHT22;58851;42.984;20.336;2023-09-19T14:41:33;691.40;153.60
55331;DHT22;58851;42.984;20.336;2023-09-19T14:44:01;691.40;153.60
55331;DHT22;58851;42.984;20.336;2023-09-19T14:46:28;691.40;153.60
55331;DHT22;58851;42.984;20.336;2023-09-19T14:48:55;691.30;153.60
55331;DHT22;58851;42.984;20.336;2023-09-19T14:54:14;691.20;153.60
55331;DHT22;58851;42.984;20.336;2023-09-19T14:56:44;666.40;153.60
55331;DHT22;58851;42.984;20.336;2023-09-19T14:59:10;665.70;153.60
55331;DHT22;58851;42.984;20.336;2023-09-19T15:01:41;640.80;128.00
55331;DHT22;58851;42.984;20.336;2023-09-19T15:04:07;640.60;128.00
55331;DHT22;58851;42.984;20.336;2023-09-19T15:06:34;640.70;128.00
55331;DHT22;58851;42.984;20.336;2023-09-19T15:09:00;640.70;128.00
55331;DHT22;58851;42.984;20.336;2023-09-19T15:11:26;640.70;128.00
55331;DHT22;58851;42.984;20.336;2023-09-19T15:13:52;640.70;128.00
55331;DHT22;58851;42.984;20.336;2023-09-19T15:16:22;640.60;128.00
55331;DHT22;58851;42.984;20.336;2023-09-19T15:18:48;640.40;128.00
55331;DHT22;58851;42.984;20.336;2023-09-19T15:21:15;640.30;128.00
55331;DHT22;58851;42.984;20.336;2023-09-19T15:23:43;640.40;128.00
55331;DHT22;58851;42.984;20.336;2023-09-19T15:26:12;640.60;128.00
55331;DHT22;58851;42.984;20.336;2023-09-19T15:28:38;640.20;128.00
55331;DHT22;58851;42.984;20.336;2023-09-19T15:31:06;640.00;281.60
55331;DHT22;58851;42.984;20.336;2023-09-19T15:33:32;615.30;691.20
55331;DHT22;58851;42.984;20.336;2023-09-19T15:36:12;615.30;179.20
55331;DHT22;58851;42.984;20.336;2023-09-19T15:41:19;640.30;128.00
55331;DHT22;58851;42.984;20.336;2023-09-19T15:43:46;640.50;128.00
55331;DHT22;58851;42.984;20.336;2023-09-19T15:46:12;640.60;128.00
55331;DHT22;58851;42.984;20.336;2023-09-19T15:48:39;640.70;128.00
55331;DHT22;58851;42.984;20.336;2023-09-19T15:51:05;640.70;128.00
55331;DHT22;58851;42.984;20.336;2023-09-19T15:53:43;640.70;128.00
55331;DHT22;58851;42.984;20.336;2023-09-19T15:56:10;640.70;128.00
55331;DHT22;58851;42.984;20.336;2023-09-19T15:58:38;640.70;128.00
55331;DHT22;58851;42.984;20.336;2023-09-19T16:01:08;640.70;128.00
55331;DHT22;58851;42.984;20.336;2023-09-19T16:03:47;640.60;128.00
55331;DHT22;58851;42.984;20.336;2023-09-19T16:06:18;640.70;128.00
55331;DHT22;58851;42.984;20.336;2023-09-19T16:08:47;640.70;128.00
55331;DHT22;58851;42.984;20.336;2023-09-19T16:11:13;640.30;128.00
55331;DHT22;58851;42.984;20.336;2023-09-19T16:13:41;640.00;128.00
55331;DHT22;58851;42.984;20.336;2023-09-19T16:16:08;615.20;153.60
55331;DHT22;58851;42.984;20.336;2023-09-19T16:18:38;615.00;358.40
55331;DHT22;58851;42.984;20.336;2023-09-19T16:21:08;614.90;742.40
55331;DHT22;58851;42.984;20.336;2023-09-19T16:23:34;614.90;128.00
55331;DHT22;58851;42.984;20.336;2023-09-19T16:26:09;614.50;128.00
55331;DHT22;58851;42.984;20.336;2023-09-19T16:28:36;589.70;128.00
55331;DHT22;58851;42.984;20.336;2023-09-19T16:31:05;589.30;128.00
55331;DHT22;58851;42.984;20.336;2023-09-19T16:33:36;589.00;128.00
55331;DHT22;58851;42.984;20.336;2023-09-19T16:36:07;564.10;128.00
55331;DHT22;58851;42.984;20.336;2023-09-19T16:38:33;564.00;128.00